sensor_id;sensor_type;location;lat;lon;timestamp;P1;durP1;ratioP1;P2;durP2;ratioP2
45382;SDS011;42455;51.660;5.824;2022-10-15T00:03:59;18.0;;;16.5;;
45382;SDS011;42455;51.660;5.824;2022-10-15T00:09:06;20.0;;;18.0;;
45382;SDS011;42455;51.660;5.824;2022-10-15T00:14:12;21.0;;;18.0;;
45382;SDS011;42455;51.660;5.824;2022-10-15T00:19:18;18.0;;;16.0;;
45382;SDS011;42455;51.660;5.824;2022-10-15T00:24:24;15.0;;;14.0;;
45382;SDS011;42455;51.660;5.824;2022-10-15T00:29:31;16.0;;;15.0;;
45382;SDS011;42455;51.660;5.824;2022-10-15T00:34:37;18.0;;;16.0;;
45382;SDS011;42455;51.660;5.824;2022-10-15T00:39:43;17.0;;;15.5;;
45382;SDS011;42455;51.660;5.824;2022-10-15T00:44:59;17.0;;;15.0;;
45382;SDS011;42455;51.660;5.824;2022-10-15T00:49:57;17.0;;;16.0;;
45382;SDS011;42455;51.660;5.824;2022-10-15T00:55:02;18.0;;;16.0;;
45382;SDS011;42455;51.660;5.824;2022-10-15T01:00:09;17.5;;;16.0;;
45382;SDS011;42455;51.660;5.824;2022-10-15T01:05:15;18.0;;;16.0;;
45382;SDS011;42455;51.660;5.824;2022-10-15T01:10:20;18.0;;;16.0;;
45382;SDS011;42455;51.660;5.824;2022-10-15T01:15:28;22.0;;;19.0;;
45382;SDS011;42455;51.660;5.824;2022-10-15T01:21:00;22.0;;;19.0;;
45382;SDS011;42455;51.660;5.824;2022-10-15T01:27:16;23.0;;;21.0;;
45382;SDS011;42455;51.660;5.824;2022-10-15T01:30:46;27.0;;;23.5;;
45382;SDS011;42455;51.660;5.824;2022-10-15T01:35:51;30.0;;;25.0;;
45382;SDS011;42455;51.660;5.824;2022-10-15T01:40:57;31.5;;;26.0;;
45382;SDS011;42455;51.660;5.824;2022-10-15T01:46:05;36.0;;;30.0;;
45382;SDS011;42455;51.660;5.824;2022-10-15T01:51:09;36.0;;;31.0;;
45382;SDS011;42455;51.660;5.824;2022-10-15T01:56:16;39.0;;;32.0;;
45382;SDS011;42455;51.660;5.824;2022-10-15T02:01:20;40.0;;;32.0;;
45382;SDS011;42455;51.660;5.824;2022-10-15T02:06:27;40.0;;;33.5;;
45382;SDS011;42455;51.660;5.824;2022-10-15T02:11:43;41.0;;;33.0;;
45382;SDS011;42455;51.660;5.824;2022-10-15T02:16:42;38.5;;;32.0;;
45382;SDS011;42455;51.660;5.824;2022-10-15T02:26:52;37.0;;;30.5;;
45382;SDS011;42455;51.660;5.824;2022-10-15T02:32:00;33.0;;;29.0;;
45382;SDS011;42455;51.660;5.824;2022-10-15T02:37:04;33.0;;;30.0;;
45382;SDS011;42455;51.660;5.824;2022-10-15T02:47:16;32.0;;;28.5;;
45382;SDS011;42455;51.660;5.824;2022-10-15T02:52:21;31.0;;;27.0;;
45382;SDS011;42455;51.660;5.824;2022-10-15T02:57:34;30.5;;;27.0;;
45382;SDS011;42455;51.660;5.824;2022-10-15T03:02:46;31.0;;;28.0;;
45382;SDS011;42455;51.660;5.824;2022-10-15T03:07:58;31.0;;;28.0;;
45382;SDS011;42455;51.660;5.824;2022-10-15T03:13:11;31.0;;;28.0;;
45382;SDS011;42455;51.660;5.824;2022-10-15T03:18:23;32.0;;;28.0;;
45382;SDS011;42455;51.660;5.824;2022-10-15T03:23:34;31.0;;;28.0;;
45382;SDS011;42455;51.660;5.824;2022-10-15T03:28:41;31.0;;;27.5;;
45382;SDS011;42455;51.660;5.824;2022-10-15T03:33:47;28.0;;;25.0;;
45382;SDS011;42455;51.660;5.824;2022-10-15T03:38:53;30.0;;;27.0;;
45382;SDS011;42455;51.660;5.824;2022-10-15T03:44:00;29.5;;;26.5;;
45382;SDS011;42455;51.660;5.824;2022-10-15T03:49:06;31.0;;;27.0;;
45382;SDS011;42455;51.660;5.824;2022-10-15T03:54:12;30.0;;;27.0;;
45382;SDS011;42455;51.660;5.824;2022-10-15T03:59:18;33.0;;;28.0;;
45382;SDS011;42455;51.660;5.824;2022-10-15T04:04:24;31.0;;;28.0;;
45382;SDS011;42455;51.660;5.824;2022-10-15T04:09:30;34.5;;;29.0;;
45382;SDS011;42455;51.660;5.824;2022-10-15T04:14:37;32.0;;;28.0;;
45382;SDS011;42455;51.660;5.824;2022-10-15T04:19:43;34.0;;;30.0;;
45382;SDS011;42455;51.660;5.824;2022-10-15T04:24:49;33.0;;;29.0;;
45382;SDS011;42455;51.660;5.824;2022-10-15T04:29:55;34.0;;;29.0;;
45382;SDS011;42455;51.660;5.824;2022-10-15T04:35:02;34.0;;;29.0;;
45382;SDS011;42455;51.660;5.824;2022-10-15T04:40:08;33.5;;;29.0;;
45382;SDS011;42455;51.660;5.824;2022-10-15T04:45:14;34.0;;;29.0;;
45382;SDS011;42455;51.660;5.824;2022-10-15T04:50:20;36.5;;;29.0;;
45382;SDS011;42455;51.660;5.824;2022-10-15T04:55:26;36.0;;;29.0;;
45382;SDS011;42455;51.660;5.824;2022-10-15T05:00:33;34.5;;;28.0;;
45382;SDS011;42455;51.660;5.824;2022-10-15T05:05:39;38.0;;;30.0;;
45382;SDS011;42455;51.660;5.824;2022-10-15T05:10:44;37.0;;;30.0;;
45382;SDS011;42455;51.660;5.824;2022-10-15T05:15:50;41.0;;;32.0;;
45382;SDS011;42455;51.660;5.824;2022-10-15T05:20:58;41.0;;;32.0;;
45382;SDS011;42455;51.660;5.824;2022-10-15T05:26:06;48.0;;;35.0;;
45382;SDS011;42455;51.660;5.824;2022-10-15T05:31:09;45.0;;;35.0;;
45382;SDS011;42455;51.660;5.824;2022-10-15T05:36:16;45.5;;;33.0;;
45382;SDS011;42455;51.660;5.824;2022-10-15T05:41:20;49.0;;;34.0;;
45382;SDS011;42455;51.660;5.824;2022-10-15T05:46:26;48.0;;;33.0;;
45382;SDS011;42455;51.660;5.824;2022-10-15T05:51:33;51.0;;;34.0;;
45382;SDS011;42455;51.660;5.824;2022-10-15T05:56:39;46.5;;;31.0;;
45382;SDS011;42455;51.660;5.824;2022-10-15T06:01:45;43.0;;;31.0;;
45382;SDS011;42455;51.660;5.824;2022-10-15T06:06:51;41.5;;;30.0;;
45382;SDS011;42455;51.660;5.824;2022-10-15T06:11:58;40.0;;;30.0;;
45382;SDS011;42455;51.660;5.824;2022-10-15T06:17:04;40.0;;;28.0;;
45382;SDS011;42455;51.660;5.824;2022-10-15T06:22:10;37.0;;;27.0;;
45382;SDS011;42455;51.660;5.824;2022-10-15T06:27:16;33.0;;;26.0;;
45382;SDS011;42455;51.660;5.824;2022-10-15T06:32:22;33.0;;;26.0;;
45382;SDS011;42455;51.660;5.824;2022-10-15T06:37:29;33.0;;;26.0;;
45382;SDS011;42455;51.660;5.824;2022-10-15T06:42:35;30.0;;;25.0;;
45382;SDS011;42455;51.660;5.824;2022-10-15T06:47:41;29.0;;;24.0;;
45382;SDS011;42455;51.660;5.824;2022-10-15T06:52:47;27.0;;;23.0;;
45382;SDS011;42455;51.660;5.824;2022-10-15T06:57:54;27.0;;;23.0;;
45382;SDS011;42455;51.660;5.824;2022-10-15T07:03:02;27.0;;;23.0;;
45382;SDS011;42455;51.660;5.824;2022-10-15T07:08:05;28.0;;;24.0;;
45382;SDS011;42455;51.660;5.824;2022-10-15T07:13:11;27.0;;;23.0;;
45382;SDS011;42455;51.660;5.824;2022-10-15T07:23:23;26.0;;;23.0;;
45382;SDS011;42455;51.660;5.824;2022-10-15T07:28:28;27.0;;;23.0;;
45382;SDS011;42455;51.660;5.824;2022-10-15T07:33:34;26.0;;;23.0;;
45382;SDS011;42455;51.660;5.824;2022-10-15T07:38:40;28.0;;;22.0;;
45382;SDS011;42455;51.660;5.824;2022-10-15T07:43:46;27.0;;;23.0;;
45382;SDS011;42455;51.660;5.824;2022-10-15T07:48:53;27.0;;;23.0;;
45382;SDS011;42455;51.660;5.824;2022-10-15T07:53:59;27.5;;;23.0;;
45382;SDS011;42455;51.660;5.824;2022-10-15T07:59:06;28.0;;;23.0;;
45382;SDS011;42455;51.660;5.824;2022-10-15T08:04:11;28.0;;;23.0;;
45382;SDS011;42455;51.660;5.824;2022-10-15T08:09:18;26.0;;;23.0;;
45382;SDS011;42455;51.660;5.824;2022-10-15T08:14:24;27.0;;;23.0;;
45382;SDS011;42455;51.660;5.824;2022-10-15T08:19:30;26.0;;;22.0;;
45382;SDS011;42455;51.660;5.824;2022-10-15T08:24:36;26.0;;;22.0;;
45382;SDS011;42455;51.660;5.824;2022-10-15T08:29:42;26.0;;;22.0;;
45382;SDS011;42455;51.660;5.824;2022-10-15T08:34:48;24.0;;;21.0;;
45382;SDS011;42455;51.660;5.824;2022-10-15T08:39:55;21.0;;;19.0;;
45382;SDS011;42455;51.660;5.824;2022-10-15T08:45:02;19.0;;;17.0;;
45382;SDS011;42455;51.660;5.824;2022-10-15T08:50:11;17.0;;;15.0;;
45382;SDS011;42455;51.660;5.824;2022-10-15T08:55:15;15.0;;;13.0;;
45382;SDS011;42455;51.660;5.824;2022-10-15T09:00:22;14.0;;;12.0;;
45382;SDS011;42455;51.660;5.824;2022-10-15T09:05:35;13.0;;;12.0;;
45382;SDS011;42455;51.660;5.824;2022-10-15T09:10:46;13.0;;;11.0;;
45382;SDS011;42455;51.660;5.824;2022-10-15T09:15:40;12.0;;;11.0;;
45382;SDS011;42455;51.660;5.824;2022-10-15T09:20:43;12.0;;;10.0;;
45382;SDS011;42455;51.660;5.824;2022-10-15T09:25:50;11.0;;;10.0;;
45382;SDS011;42455;51.660;5.824;2022-10-15T09:30:56;11.0;;;9.0;;
45382;SDS011;42455;51.660;5.824;2022-10-15T09:36:07;10.0;;;9.0;;
45382;SDS011;42455;51.660;5.824;2022-10-15T09:41:38;10.0;;;9.0;;
45382;SDS011;42455;51.660;5.824;2022-10-15T09:46:13;12.0;;;9.0;;
45382;SDS011;42455;51.660;5.824;2022-10-15T09:51:24;11.0;;;10.0;;
45382;SDS011;42455;51.660;5.824;2022-10-15T09:56:27;13.0;;;11.0;;
45382;SDS011;42455;51.660;5.824;2022-10-15T10:01:32;12.0;;;11.0;;
45382;SDS011;42455;51.660;5.824;2022-10-15T10:06:42;12.0;;;11.0;;
45382;SDS011;42455;51.660;5.824;2022-10-15T10:11:55;12.0;;;11.0;;
45382;SDS011;42455;51.660;5.824;2022-10-15T10:17:11;13.0;;;10.0;;
45382;SDS011;42455;51.660;5.824;2022-10-15T10:22:14;11.0;;;10.0;;
45382;SDS011;42455;51.660;5.824;2022-10-15T10:27:22;11.0;;;9.0;;
45382;SDS011;42455;51.660;5.824;2022-10-15T10:32:11;10.0;;;9.0;;
45382;SDS011;42455;51.660;5.824;2022-10-15T10:37:16;9.0;;;8.0;;
45382;SDS011;42455;51.660;5.824;2022-10-15T10:42:32;8.0;;;7.0;;
45382;SDS011;42455;51.660;5.824;2022-10-15T10:47:28;7.0;;;6.0;;
45382;SDS011;42455;51.660;5.824;2022-10-15T10:52:36;7.0;;;6.0;;
45382;SDS011;42455;51.660;5.824;2022-10-15T10:57:41;7.0;;;6.0;;
45382;SDS011;42455;51.660;5.824;2022-10-15T11:02:47;6.0;;;5.0;;
45382;SDS011;42455;51.660;5.824;2022-10-15T11:08:04;5.0;;;5.0;;
45382;SDS011;42455;51.660;5.824;2022-10-15T11:13:26;5.0;;;4.0;;
45382;SDS011;42455;51.660;5.824;2022-10-15T11:18:17;6.0;;;5.0;;
45382;SDS011;42455;51.660;5.824;2022-10-15T11:23:31;5.0;;;5.0;;
45382;SDS011;42455;51.660;5.824;2022-10-15T11:28:28;5.0;;;4.5;;
45382;SDS011;42455;51.660;5.824;2022-10-15T11:33:29;5.0;;;5.0;;
45382;SDS011;42455;51.660;5.824;2022-10-15T11:39:13;5.0;;;4.0;;
45382;SDS011;42455;51.660;5.824;2022-10-15T11:43:42;4.0;;;4.0;;
45382;SDS011;42455;51.660;5.824;2022-10-15T11:49:03;4.0;;;4.0;;
45382;SDS011;42455;51.660;5.824;2022-10-15T11:54:07;4.0;;;4.0;;
45382;SDS011;42455;51.660;5.824;2022-10-15T11:58:56;4.0;;;3.0;;
45382;SDS011;42455;51.660;5.824;2022-10-15T12:03:59;4.0;;;3.0;;
45382;SDS011;42455;51.660;5.824;2022-10-15T12:09:06;4.0;;;3.0;;
45382;SDS011;42455;51.660;5.824;2022-10-15T12:14:26;3.0;;;3.0;;
45382;SDS011;42455;51.660;5.824;2022-10-15T12:19:20;3.0;;;3.0;;
45382;SDS011;42455;51.660;5.824;2022-10-15T12:24:53;3.0;;;3.0;;
45382;SDS011;42455;51.660;5.824;2022-10-15T12:29:30;3.0;;;3.0;;
45382;SDS011;42455;51.660;5.824;2022-10-15T12:34:40;3.0;;;3.0;;
45382;SDS011;42455;51.660;5.824;2022-10-15T12:39:44;3.0;;;3.0;;
45382;SDS011;42455;51.660;5.824;2022-10-15T12:44:49;4.0;;;3.0;;
45382;SDS011;42455;51.660;5.824;2022-10-15T12:50:05;3.0;;;3.0;;
45382;SDS011;42455;51.660;5.824;2022-10-15T12:55:19;4.0;;;3.0;;
45382;SDS011;42455;51.660;5.824;2022-10-15T13:00:35;4.0;;;3.0;;
45382;SDS011;42455;51.660;5.824;2022-10-15T13:05:23;3.0;;;3.0;;
45382;SDS011;42455;51.660;5.824;2022-10-15T13:10:24;3.0;;;3.0;;
45382;SDS011;42455;51.660;5.824;2022-10-15T13:15:27;3.0;;;2.0;;
45382;SDS011;42455;51.660;5.824;2022-10-15T13:20:36;3.0;;;3.0;;
45382;SDS011;42455;51.660;5.824;2022-10-15T13:25:38;5.0;;;3.0;;
45382;SDS011;42455;51.660;5.824;2022-10-15T13:30:46;3.0;;;3.0;;
45382;SDS011;42455;51.660;5.824;2022-10-15T13:35:50;3.0;;;3.0;;
45382;SDS011;42455;51.660;5.824;2022-10-15T13:40:55;3.0;;;3.0;;
45382;SDS011;42455;51.660;5.824;2022-10-15T13:46:02;3.0;;;2.5;;
45382;SDS011;42455;51.660;5.824;2022-10-15T13:51:09;2.0;;;2.0;;
45382;SDS011;42455;51.660;5.824;2022-10-15T13:56:26;3.0;;;2.0;;
45382;SDS011;42455;51.660;5.824;2022-10-15T14:01:20;3.0;;;3.0;;
45382;SDS011;42455;51.660;5.824;2022-10-15T14:06:28;4.0;;;4.0;;
45382;SDS011;42455;51.660;5.824;2022-10-15T14:11:32;5.0;;;5.0;;
45382;SDS011;42455;51.660;5.824;2022-10-15T14:16:44;6.0;;;5.0;;
45382;SDS011;42455;51.660;5.824;2022-10-15T14:21:46;2.0;;;2.0;;
45382;SDS011;42455;51.660;5.824;2022-10-15T14:26:51;1.0;;;1.0;;
45382;SDS011;42455;51.660;5.824;2022-10-15T14:31:57;1.0;;;1.0;;
45382;SDS011;42455;51.660;5.824;2022-10-15T14:37:29;1.0;;;1.0;;
45382;SDS011;42455;51.660;5.824;2022-10-15T14:42:27;1.0;;;1.0;;
45382;SDS011;42455;51.660;5.824;2022-10-15T14:47:18;1.0;;;0.0;;
45382;SDS011;42455;51.660;5.824;2022-10-15T14:52:22;1.0;;;0.0;;
45382;SDS011;42455;51.660;5.824;2022-10-15T14:57:29;0.5;;;0.0;;
45382;SDS011;42455;51.660;5.824;2022-10-15T15:02:35;1.0;;;1.0;;
45382;SDS011;42455;51.660;5.824;2022-10-15T15:07:41;0.0;;;0.0;;
45382;SDS011;42455;51.660;5.824;2022-10-15T15:12:48;0.0;;;0.0;;
45382;SDS011;42455;51.660;5.824;2022-10-15T15:17:53;1.0;;;0.0;;
45382;SDS011;42455;51.660;5.824;2022-10-15T15:22:59;0.0;;;0.0;;
45382;SDS011;42455;51.660;5.824;2022-10-15T15:28:05;1.0;;;0.0;;
45382;SDS011;42455;51.660;5.824;2022-10-15T15:33:11;0.0;;;0.0;;
45382;SDS011;42455;51.660;5.824;2022-10-15T15:38:16;0.0;;;0.0;;
45382;SDS011;42455;51.660;5.824;2022-10-15T15:43:22;1.0;;;0.0;;
45382;SDS011;42455;51.660;5.824;2022-10-15T15:48:28;0.0;;;0.0;;
45382;SDS011;42455;51.660;5.824;2022-10-15T15:53:34;1.0;;;1.0;;
45382;SDS011;42455;51.660;5.824;2022-10-15T15:58:40;1.0;;;1.0;;
45382;SDS011;42455;51.660;5.824;2022-10-15T16:03:46;0.0;;;0.0;;
45382;SDS011;42455;51.660;5.824;2022-10-15T16:08:52;1.0;;;1.0;;
45382;SDS011;42455;51.660;5.824;2022-10-15T16:13:58;1.0;;;1.0;;
45382;SDS011;42455;51.660;5.824;2022-10-15T16:19:05;2.0;;;1.0;;
45382;SDS011;42455;51.660;5.824;2022-10-15T16:24:11;1.0;;;1.0;;
45382;SDS011;42455;51.660;5.824;2022-10-15T16:29:17;1.0;;;1.0;;
45382;SDS011;42455;51.660;5.824;2022-10-15T16:34:23;2.0;;;1.0;;
45382;SDS011;42455;51.660;5.824;2022-10-15T16:39:30;1.0;;;1.0;;
45382;SDS011;42455;51.660;5.824;2022-10-15T16:44:36;2.0;;;1.0;;
45382;SDS011;42455;51.660;5.824;2022-10-15T16:49:42;2.0;;;1.0;;
45382;SDS011;42455;51.660;5.824;2022-10-15T16:54:48;3.0;;;1.0;;
45382;SDS011;42455;51.660;5.824;2022-10-15T16:59:54;2.0;;;1.0;;
45382;SDS011;42455;51.660;5.824;2022-10-15T17:05:01;1.0;;;1.0;;
45382;SDS011;42455;51.660;5.824;2022-10-15T17:10:07;2.0;;;1.0;;
45382;SDS011;42455;51.660;5.824;2022-10-15T17:15:13;1.0;;;1.0;;
45382;SDS011;42455;51.660;5.824;2022-10-15T17:20:19;1.0;;;1.0;;
45382;SDS011;42455;51.660;5.824;2022-10-15T17:25:24;2.0;;;2.0;;
45382;SDS011;42455;51.660;5.824;2022-10-15T17:30:33;2.0;;;1.0;;
45382;SDS011;42455;51.660;5.824;2022-10-15T17:35:36;2.5;;;1.0;;
45382;SDS011;42455;51.660;5.824;2022-10-15T17:40:42;3.0;;;2.0;;
45382;SDS011;42455;51.660;5.824;2022-10-15T17:45:48;4.0;;;3.0;;
45382;SDS011;42455;51.660;5.824;2022-10-15T17:50:55;3.0;;;2.0;;
45382;SDS011;42455;51.660;5.824;2022-10-15T17:56:08;3.0;;;2.0;;
45382;SDS011;42455;51.660;5.824;2022-10-15T18:01:10;2.0;;;2.0;;
45382;SDS011;42455;51.660;5.824;2022-10-15T18:06:14;3.0;;;2.0;;
45382;SDS011;42455;51.660;5.824;2022-10-15T18:11:25;3.5;;;2.0;;
45382;SDS011;42455;51.660;5.824;2022-10-15T18:16:26;3.0;;;2.0;;
45382;SDS011;42455;51.660;5.824;2022-10-15T18:21:32;7.0;;;6.0;;
45382;SDS011;42455;51.660;5.824;2022-10-15T18:26:38;4.0;;;3.0;;
45382;SDS011;42455;51.660;5.824;2022-10-15T18:31:44;3.0;;;3.0;;
45382;SDS011;42455;51.660;5.824;2022-10-15T18:36:50;4.0;;;3.0;;
45382;SDS011;42455;51.660;5.824;2022-10-15T18:41:57;3.0;;;2.0;;
45382;SDS011;42455;51.660;5.824;2022-10-15T18:47:03;4.0;;;3.0;;
45382;SDS011;42455;51.660;5.824;2022-10-15T18:52:09;3.5;;;3.0;;
45382;SDS011;42455;51.660;5.824;2022-10-15T18:57:15;4.0;;;3.0;;
45382;SDS011;42455;51.660;5.824;2022-10-15T19:02:21;2.0;;;2.0;;
45382;SDS011;42455;51.660;5.824;2022-10-15T19:07:28;6.5;;;3.0;;
45382;SDS011;42455;51.660;5.824;2022-10-15T19:12:34;3.0;;;3.0;;
45382;SDS011;42455;51.660;5.824;2022-10-15T19:17:40;4.0;;;4.0;;
45382;SDS011;42455;51.660;5.824;2022-10-15T19:22:45;5.0;;;4.0;;
45382;SDS011;42455;51.660;5.824;2022-10-15T19:27:52;4.0;;;3.0;;
45382;SDS011;42455;51.660;5.824;2022-10-15T19:32:57;5.0;;;4.0;;
45382;SDS011;42455;51.660;5.824;2022-10-15T19:38:03;6.0;;;4.0;;
45382;SDS011;42455;51.660;5.824;2022-10-15T19:43:09;5.0;;;4.0;;
45382;SDS011;42455;51.660;5.824;2022-10-15T19:48:16;5.0;;;3.0;;
45382;SDS011;42455;51.660;5.824;2022-10-15T19:53:22;3.0;;;3.0;;
45382;SDS011;42455;51.660;5.824;2022-10-15T19:58:28;3.0;;;3.0;;
45382;SDS011;42455;51.660;5.824;2022-10-15T20:03:34;4.5;;;3.0;;
45382;SDS011;42455;51.660;5.824;2022-10-15T20:08:40;5.0;;;3.0;;
45382;SDS011;42455;51.660;5.824;2022-10-15T20:18:53;4.0;;;3.0;;
45382;SDS011;42455;51.660;5.824;2022-10-15T20:23:59;6.0;;;3.0;;
45382;SDS011;42455;51.660;5.824;2022-10-15T20:29:05;4.0;;;3.0;;
45382;SDS011;42455;51.660;5.824;2022-10-15T20:34:11;4.0;;;3.0;;
45382;SDS011;42455;51.660;5.824;2022-10-15T20:39:18;5.0;;;3.0;;
45382;SDS011;42455;51.660;5.824;2022-10-15T20:44:24;4.0;;;3.0;;
45382;SDS011;42455;51.660;5.824;2022-10-15T20:49:31;5.0;;;3.0;;
45382;SDS011;42455;51.660;5.824;2022-10-15T20:54:36;4.0;;;3.0;;
45382;SDS011;42455;51.660;5.824;2022-10-15T20:59:42;6.0;;;3.0;;
45382;SDS011;42455;51.660;5.824;2022-10-15T21:04:49;5.0;;;3.0;;
45382;SDS011;42455;51.660;5.824;2022-10-15T21:09:55;4.0;;;3.0;;
45382;SDS011;42455;51.660;5.824;2022-10-15T21:15:01;6.0;;;3.0;;
45382;SDS011;42455;51.660;5.824;2022-10-15T21:20:07;6.0;;;4.0;;
45382;SDS011;42455;51.660;5.824;2022-10-15T21:25:13;5.0;;;3.0;;
45382;SDS011;42455;51.660;5.824;2022-10-15T21:30:19;4.0;;;3.0;;
45382;SDS011;42455;51.660;5.824;2022-10-15T21:35:25;5.0;;;4.0;;
45382;SDS011;42455;51.660;5.824;2022-10-15T21:40:30;7.5;;;4.0;;
45382;SDS011;42455;51.660;5.824;2022-10-15T21:45:36;5.0;;;4.0;;
45382;SDS011;42455;51.660;5.824;2022-10-15T21:50:45;5.0;;;3.0;;
45382;SDS011;42455;51.660;5.824;2022-10-15T21:55:50;4.0;;;3.0;;
45382;SDS011;42455;51.660;5.824;2022-10-15T22:00:55;9.0;;;5.0;;
45382;SDS011;42455;51.660;5.824;2022-10-15T22:06:01;7.0;;;5.0;;
45382;SDS011;42455;51.660;5.824;2022-10-15T22:11:11;7.0;;;5.0;;
45382;SDS011;42455;51.660;5.824;2022-10-15T22:16:14;6.0;;;4.0;;
45382;SDS011;42455;51.660;5.824;2022-10-15T22:21:22;5.5;;;3.0;;
45382;SDS011;42455;51.660;5.824;2022-10-15T22:26:28;4.0;;;3.0;;
45382;SDS011;42455;51.660;5.824;2022-10-15T22:31:32;5.0;;;4.0;;
45382;SDS011;42455;51.660;5.824;2022-10-15T22:36:39;6.0;;;4.0;;
45382;SDS011;42455;51.660;5.824;2022-10-15T22:41:45;5.0;;;3.0;;
45382;SDS011;42455;51.660;5.824;2022-10-15T22:46:51;5.0;;;5.0;;
45382;SDS011;42455;51.660;5.824;2022-10-15T22:51:57;6.0;;;5.0;;
45382;SDS011;42455;51.660;5.824;2022-10-15T22:57:03;6.0;;;4.0;;
45382;SDS011;42455;51.660;5.824;2022-10-15T23:02:10;7.0;;;4.0;;
45382;SDS011;42455;51.660;5.824;2022-10-15T23:07:16;5.0;;;4.0;;
45382;SDS011;42455;51.660;5.824;2022-10-15T23:12:22;4.0;;;3.0;;
45382;SDS011;42455;51.660;5.824;2022-10-15T23:17:28;4.0;;;2.0;;
45382;SDS011;42455;51.660;5.824;2022-10-15T23:22:34;6.0;;;3.0;;
45382;SDS011;42455;51.660;5.824;2022-10-15T23:27:40;4.0;;;3.0;;
45382;SDS011;42455;51.660;5.824;2022-10-15T23:32:46;5.0;;;3.0;;
45382;SDS011;42455;51.660;5.824;2022-10-15T23:37:52;4.0;;;3.0;;
45382;SDS011;42455;51.660;5.824;2022-10-15T23:42:57;5.0;;;3.0;;
45382;SDS011;42455;51.660;5.824;2022-10-15T23:48:04;5.0;;;3.0;;
45382;SDS011;42455;51.660;5.824;2022-10-15T23:53:10;5.0;;;3.0;;
45382;SDS011;42455;51.660;5.824;2022-10-15T23:58:17;5.0;;;4.0;;
